LEH weather

Le Havre Octeville Airport
Le Havre/Octeville, Normandy, France

Public forecast

Using degrees Celsius for public forecast. Weather courtesy of forecast.io.

Current aviation weather report (METAR) for Le Havre Octeville Airport

Retrieved 2020/02/25 14:30 UTC (27 minutes ago):

LFOH 251430Z AUTO 28020G34KT 6000 FEW020 SCT034 BKN052 07/04 Q1003 TEMPO 30035G55KT 1200 TSRAGS BKN015CB

Aviation forecast (TAF) for Le Havre Octeville Airport

Retrieved 2020/02/25 12:46 UTC (2 hours ago):

TAF LFOH 251100Z 2512/2612 25015KT 9999 BKN025 TEMPO 2512/2606 25015G33KT 3000 SHRA BKN020CB PROB40 TEMPO 2512/2606 30035G55KT 1200 TSRAGS BKN015CB BECMG 2600/2603 31015KT TEMPO 2606/2612 30020G35KT